Meteo Giornale » Osservazioni meteo Arabia Saudita » Al Dawadmi
ore: 13:00 - Osservazioni Meteo Al Dawadmi
Lat. 24° 27' N Lon. 44° 7' E Alt. 922 metri s.l.m.
42 °C
Sereno
Temp. 24 Ore
26 °C
43 °C
Sud
18.5 Km/h
Dew point -4 °C
Umidità 5 %
Visibilità 10 Km
Il sole sorge alle ore 05:44
Il sole tramonta alle ore 18:22
| Data e Ora | Cielo e Fenomeni | T °C | DP °C | Um. % | Pres. hPa | Vis. km | Vento km/h | |
|---|---|---|---|---|---|---|---|---|
| Oggi h: 13:00 | Sereno | 42 | -4 | 5 | 1011 | 10 | S 18.5 | |
| Oggi h: 12:00 | Sereno | 41 | -4 | 5 | 1011 | 10 | SE 14.8 | |
| Oggi h: 11:00 | Sereno | 40 | -4 | 6 | 1012 | 10 | O 7.4 | |
| Oggi h: 10:00 | Sereno | 39 | -2 | 7 | 1012 | 10 | S/SE 14.8 | |
| Oggi h: 09:00 | Sereno | 36 | -1 | 9 | 1012 | 10 | E/SE 11.1 | |
| Oggi h: 08:00 | Sereno | 34 | -2 | 9 | 1012 | 10 | SE 20.3 | |
| Oggi h: 07:00 | Sereno | 29 | -2 | 13 | 1012 | 10 | SE 9.3 | |
| Oggi h: 06:00 | Sereno | 26 | -4 | 13 | 1011 | 10 | E/SE 11.1 | |
| Oggi h: 05:00 | Sereno | 28 | -5 | 11 | 1011 | 10 | SE 7.4 | |
| Oggi h: 04:00 | Sereno | 30 | -4 | 10 | 1011 | 10 | N 5.5 | |
| Oggi h: 03:00 | Sereno | 30 | -5 | 9 | 1011 | 10 | S 7.4 | |
| Oggi h: 02:00 | Sereno | 31 | -4 | 10 | 1010 | 10 | E/NE 11.1 | |
| Oggi h: 01:00 | Sereno | 32 | -4 | 9 | 1010 | 10 | E 18.5 | |
| Oggi h: 00:00 | Sereno | 33 | -4 | 9 | 1010 | 10 | E 18.5 | |
| Ieri h: 23:00 | Sereno | 33 | -4 | 9 | 1010 | 10 | E 16.7 | |
| Ieri h: 22:00 | Sereno | 34 | -6 | 7 | 1010 | 10 | E 16.7 | |
| Ieri h: 21:00 | Sereno | 36 | -7 | 6 | 1010 | 10 | E 18.5 | |
| Ieri h: 20:00 | Sereno | 37 | -5 | 6 | 1009 | 10 | E 16.7 | |
| Ieri h: 19:00 | Sereno | 39 | -6 | 5 | 1009 | 10 | E 22.2 | |
| Ieri h: 18:00 | Sereno | 41 | -7 | 4 | 1008 | 10 | E/NE 29.6 | |
| Ieri h: 17:00 | Sereno | 43 | -6 | 4 | 1008 | 10 | E 18.5 | |
| Ieri h: 16:00 | Poco Nuvoloso | 43 | -5 | 4 | 1009 | 10 | NO 9.3 | |
| Ieri h: 15:00 | Poco Nuvoloso | 43 | -5 | 4 | 1009 | 10 | N/NE 13 | |
| Ieri h: 14:00 | Sereno | 43 | -5 | 4 | 1010 | 10 | S/SE 14.8 | |



